Time;durP1;ratioP1;P1;durP2;ratioP2;P2;SDS_P1;SDS_P2;PMS_P1;PMS_P2;Temp;Humidity;BMP_temperature;BMP_pressure;BME280_temperature;BME280_humidity;BME280_pressure;Samples;Min_cycle;Max_cycle;Signal;HPM_P1;HPM_P2
2022/10/18 00:01:13;;;;;;;11.00;5.28;;;16.00;87.70;;;;;;5074287;28;20024;-65
2022/10/18 00:03:39;;;;;;;12.30;5.80;;;16.00;87.90;;;;;;5074189;28;20056;-64
2022/10/18 00:06:07;;;;;;;8.02;5.63;;;16.00;87.60;;;;;;5073504;28;20362;-64
2022/10/18 00:08:34;;;;;;;11.35;6.25;;;16.00;88.00;;;;;;5074127;28;20064;-64
2022/10/18 00:11:00;;;;;;;9.60;5.82;;;16.00;87.60;;;;;;5073602;28;20028;-64
2022/10/18 00:13:26;;;;;;;8.98;5.78;;;16.00;87.70;;;;;;5055960;28;20381;-64
2022/10/18 00:15:56;;;;;;;7.57;4.90;;;16.00;87.40;;;;;;5073568;28;20025;-64
2022/10/18 00:18:22;;;;;;;8.77;5.80;;;16.00;87.30;;;;;;5073609;28;20028;-65
2022/10/18 00:21:02;;;;;;;9.65;5.57;;;15.90;87.10;;;;;;5073549;28;20059;-64
2022/10/18 00:23:29;;;;;;;13.40;5.50;;;15.90;86.70;;;;;;5073714;28;20159;-64
2022/10/18 00:26:14;;;;;;;8.13;5.43;;;15.90;86.90;;;;;;5055250;28;20457;-65
2022/10/18 00:28:40;;;;;;;9.25;5.60;;;15.90;87.00;;;;;;5073572;28;20158;-65
2022/10/18 00:31:27;;;;;;;8.10;5.45;;;15.80;87.50;;;;;;5073540;28;20039;-65
2022/10/18 00:33:56;;;;;;;9.50;5.43;;;15.80;87.40;;;;;;5072870;28;20025;-65
2022/10/18 00:36:23;;;;;;;11.75;6.13;;;15.80;87.30;;;;;;5073458;28;20048;-64
2022/10/18 00:38:49;;;;;;;10.88;5.60;;;15.70;87.90;;;;;;5073107;28;20028;-64
2022/10/18 00:41:18;;;;;;;8.25;5.28;;;15.70;88.40;;;;;;5072851;28;20033;-64
2022/10/18 00:44:02;;;;;;;6.65;5.28;;;15.70;88.20;;;;;;5073262;28;20036;-64
2022/10/18 00:46:35;;;;;;;8.70;5.65;;;15.60;88.40;;;;;;5073526;28;20538;-63
2022/10/18 00:49:10;;;;;;;10.25;5.82;;;15.60;88.70;;;;;;5072781;28;20028;-65
2022/10/18 00:51:43;;;;;;;9.43;6.07;;;15.60;89.00;;;;;;5073342;28;20024;-65
2022/10/18 00:54:10;;;;;;;9.73;5.10;;;15.50;88.70;;;;;;5072738;28;20369;-65
2022/10/18 00:56:36;;;;;;;6.88;5.43;;;15.50;88.90;;;;;;5072910;28;20052;-65
2022/10/18 00:59:02;;;;;;;12.10;5.60;;;15.50;89.00;;;;;;5072587;28;20028;-66
2022/10/18 01:01:28;;;;;;;8.55;5.47;;;15.40;89.20;;;;;;5073254;28;20388;-65
2022/10/18 01:03:55;;;;;;;8.10;5.68;;;15.40;89.30;;;;;;5072572;28;20113;-67
2022/10/18 01:06:21;;;;;;;10.30;5.10;;;15.30;89.10;;;;;;5072820;28;20361;-65
2022/10/18 01:09:09;;;;;;;10.68;5.90;;;15.30;89.40;;;;;;5072109;28;20131;-65
2022/10/18 01:12:10;;;;;;;8.23;5.25;;;15.30;89.50;;;;;;5033099;28;20068;-65
2022/10/18 01:14:41;;;;;;;8.75;5.65;;;15.30;89.60;;;;;;5072333;28;20039;-65
2022/10/18 01:17:48;;;;;;;9.80;5.78;;;15.30;89.70;;;;;;5072428;28;20028;-65
2022/10/18 01:20:22;;;;;;;15.30;5.75;;;15.30;89.80;;;;;;5044596;28;20040;-64
2022/10/18 01:23:34;;;;;;;10.27;6.38;;;15.20;90.00;;;;;;5055161;28;20036;-64
2022/10/18 01:26:23;;;;;;;9.35;6.20;;;15.20;90.00;;;;;;5009493;28;20116;-66
2022/10/18 01:28:55;;;;;;;10.52;5.72;;;15.20;90.00;;;;;;5057268;28;20040;-63
2022/10/18 01:31:24;;;;;;;9.15;5.60;;;15.20;90.00;;;;;;5072627;28;20070;-66
2022/10/18 01:33:58;;;;;;;10.90;5.65;;;15.20;89.80;;;;;;5077012;28;20051;-65
2022/10/18 01:36:32;;;;;;;9.98;6.25;;;15.10;89.90;;;;;;5092596;28;20020;-65
2022/10/18 01:39:04;;;;;;;8.05;5.93;;;15.10;90.10;;;;;;5092818;28;20036;-68
2022/10/18 01:41:31;;;;;;;10.50;6.22;;;15.10;90.00;;;;;;5092784;28;20023;-65
2022/10/18 01:43:59;;;;;;;9.63;6.28;;;15.10;89.90;;;;;;5092545;28;20025;-67
2022/10/18 01:46:27;;;;;;;12.07;5.85;;;15.00;90.00;;;;;;5092855;28;20030;-64
2022/10/18 01:48:54;;;;;;;12.55;6.85;;;15.00;90.20;;;;;;5092599;28;20122;-64
2022/10/18 01:51:28;;;;;;;8.95;5.75;;;15.00;90.20;;;;;;5092070;28;20035;-66
2022/10/18 01:53:54;;;;;;;13.02;6.22;;;15.00;90.30;;;;;;5092376;28;20035;-65
2022/10/18 01:56:25;;;;;;;9.13;7.07;;;15.00;90.20;;;;;;5078422;28;20845;-66
2022/10/18 01:59:09;;;;;;;;;;;15.00;90.10;;;;;;5072957;28;20035;-65
2022/10/18 02:01:51;;;;;;;9.38;5.93;;;15.00;90.20;;;;;;5072526;28;19904;-65
2022/10/18 02:04:32;;;;;;;8.13;5.50;;;14.90;90.30;;;;;;5071929;28;20435;-65
2022/10/18 02:07:06;;;;;;;9.40;5.78;;;14.90;90.20;;;;;;5072466;28;20112;-66
2022/10/18 02:09:45;;;;;;;10.77;5.93;;;14.90;90.20;;;;;;5054797;28;20381;-65
2022/10/18 02:12:14;;;;;;;9.30;6.65;;;14.90;90.40;;;;;;5071894;28;20103;-64
2022/10/18 02:14:41;;;;;;;16.33;5.65;;;14.90;90.50;;;;;;5072256;28;20408;-65
2022/10/18 02:17:10;;;;;;;13.93;6.20;;;14.80;90.60;;;;;;5071741;28;20059;-65
2022/10/18 02:19:51;;;;;;;13.00;6.30;;;14.80;90.70;;;;;;5073361;28;20032;-65
2022/10/18 02:22:17;;;;;;;16.23;6.78;;;14.80;90.90;;;;;;5075839;28;20070;-64
2022/10/18 02:24:50;;;;;;;12.88;6.32;;;14.70;91.10;;;;;;5076109;28;20056;-64
2022/10/18 02:27:16;;;;;;;8.75;6.43;;;14.70;91.30;;;;;;5075393;28;20021;-64
2022/10/18 02:29:42;;;;;;;9.50;6.20;;;14.70;91.20;;;;;;5075849;28;20059;-65
2022/10/18 02:32:24;;;;;;;8.70;5.78;;;14.70;91.10;;;;;;5074989;28;20058;-64
2022/10/18 02:34:59;;;;;;;8.07;6.57;;;14.70;91.00;;;;;;5075896;28;20028;-64
2022/10/18 02:37:31;;;;;;;9.13;6.78;;;14.70;91.10;;;;;;5075492;28;20024;-64
2022/10/18 02:39:57;;;;;;;20.98;6.38;;;14.70;91.20;;;;;;5075888;28;20055;-65
2022/10/18 02:42:22;;;;;;;15.77;6.55;;;14.70;91.20;;;;;;5075247;28;20052;-65
2022/10/18 02:44:48;;;;;;;9.40;6.00;;;14.70;91.20;;;;;;5075612;28;20090;-65
2022/10/18 02:47:14;;;;;;;10.75;5.93;;;14.70;91.20;;;;;;5057208;28;20103;-65
2022/10/18 02:49:39;;;;;;;10.63;6.25;;;14.60;91.20;;;;;;5075524;28;20445;-64
2022/10/18 02:52:05;;;;;;;8.13;5.82;;;14.60;91.40;;;;;;5074756;28;20028;-67
2022/10/18 02:54:31;;;;;;;10.57;6.45;;;14.60;91.40;;;;;;5075656;28;20125;-64
2022/10/18 02:56:56;;;;;;;8.95;6.22;;;14.60;91.40;;;;;;5075140;28;20055;-65
2022/10/18 02:59:22;;;;;;;10.45;6.70;;;14.60;91.50;;;;;;5075065;28;20032;-65
2022/10/18 03:01:47;;;;;;;8.90;6.32;;;14.50;91.70;;;;;;5075085;28;20031;-64
2022/10/18 03:04:13;;;;;;;8.95;6.28;;;14.50;91.70;;;;;;5074575;28;20028;-64
2022/10/18 03:06:39;;;;;;;13.48;6.18;;;14.50;91.90;;;;;;5075230;28;20074;-64
2022/10/18 03:09:05;;;;;;;11.05;6.28;;;14.40;92.30;;;;;;5074908;28;20571;-67
2022/10/18 03:11:31;;;;;;;20.35;6.78;;;14.40;92.20;;;;;;5074899;28;20024;-65
2022/10/18 03:13:57;;;;;;;9.85;7.22;;;14.30;92.50;;;;;;5074789;28;20380;-64
2022/10/18 03:16:23;;;;;;;11.75;7.10;;;14.30;92.80;;;;;;5074434;28;20031;-64
2022/10/18 03:18:48;;;;;;;12.30;6.82;;;14.30;93.00;;;;;;5075185;28;20107;-64
2022/10/18 03:21:14;;;;;;;10.07;6.93;;;14.20;93.30;;;;;;5074931;28;20486;-65
2022/10/18 03:23:41;;;;;;;12.98;7.55;;;14.20;93.80;;;;;;5074978;28;20021;-65
2022/10/18 03:26:07;;;;;;;14.43;7.45;;;14.20;93.70;;;;;;5074366;28;20507;-66
2022/10/18 03:28:33;;;;;;;10.82;6.65;;;14.20;93.90;;;;;;5088783;28;20036;-65
2022/10/18 03:31:02;;;;;;;13.15;7.18;;;14.10;94.00;;;;;;5093999;28;20525;-65
2022/10/18 03:33:29;;;;;;;11.23;7.53;;;14.10;94.50;;;;;;5094462;28;20032;-66
2022/10/18 03:35:55;;;;;;;12.68;7.20;;;14.10;94.50;;;;;;5094978;28;20036;-65
2022/10/18 03:38:20;;;;;;;13.73;7.82;;;14.10;94.70;;;;;;5094649;28;20035;-64
2022/10/18 03:40:46;;;;;;;16.08;7.05;;;14.00;94.80;;;;;;5094823;28;20035;-64
2022/10/18 03:43:12;;;;;;;15.32;7.40;;;14.00;95.20;;;;;;5094572;28;20028;-64
2022/10/18 03:45:38;;;;;;;14.93;7.82;;;13.90;95.50;;;;;;5094939;28;20055;-65
2022/10/18 03:48:04;;;;;;;13.20;7.97;;;13.90;95.60;;;;;;5094433;28;20123;-64
2022/10/18 03:50:30;;;;;;;17.52;8.90;;;13.90;96.20;;;;;;5076193;28;20457;-64
2022/10/18 03:52:55;;;;;;;17.58;8.60;;;13.80;96.50;;;;;;5074555;28;20028;-64
2022/10/18 03:55:21;;;;;;;16.48;8.13;;;13.80;96.80;;;;;;5073710;28;20426;-65
2022/10/18 03:57:47;;;;;;;13.90;8.95;;;13.80;97.00;;;;;;5056530;28;20032;-65
2022/10/18 04:00:12;;;;;;;18.00;8.07;;;13.80;97.20;;;;;;5073635;28;20033;-65
2022/10/18 04:02:38;;;;;;;13.20;8.50;;;13.80;97.40;;;;;;5074247;28;20457;-64
2022/10/18 04:05:06;;;;;;;14.57;7.55;;;13.80;97.00;;;;;;5074119;28;20028;-64
2022/10/18 04:07:32;;;;;;;12.55;7.13;;;13.80;96.80;;;;;;5073059;28;20033;-65
2022/10/18 04:09:58;;;;;;;12.65;8.30;;;13.80;96.60;;;;;;5073068;28;20029;-64
2022/10/18 04:12:23;;;;;;;14.63;8.82;;;13.80;96.50;;;;;;5072897;28;20403;-64
2022/10/18 04:14:49;;;;;;;24.02;8.60;;;13.80;96.50;;;;;;5073764;28;20026;-65
2022/10/18 04:17:14;;;;;;;13.13;9.05;;;13.70;96.70;;;;;;5073420;28;20028;-64
2022/10/18 04:19:40;;;;;;;13.85;8.05;;;13.80;96.30;;;;;;5074080;28;20149;-64
2022/10/18 04:22:06;;;;;;;12.57;8.27;;;13.80;96.20;;;;;;5074104;28;20024;-64
2022/10/18 04:24:32;;;;;;;15.65;7.90;;;13.70;95.90;;;;;;5073529;28;20106;-64
2022/10/18 04:26:58;;;;;;;14.48;8.23;;;13.70;96.00;;;;;;5073362;28;20028;-64
2022/10/18 04:29:23;;;;;;;14.85;8.65;;;13.60;96.40;;;;;;5055400;28;20416;-65
2022/10/18 04:31:49;;;;;;;12.00;8.63;;;13.60;96.30;;;;;;5073585;28;20423;-64
2022/10/18 04:34:15;;;;;;;16.42;8.57;;;13.60;96.70;;;;;;5073075;28;20082;-65
2022/10/18 04:36:40;;;;;;;14.30;8.43;;;13.60;96.40;;;;;;5073587;28;20025;-65
2022/10/18 04:39:06;;;;;;;17.35;8.13;;;13.50;96.60;;;;;;5073349;28;20446;-64
2022/10/18 04:41:31;;;;;;;12.80;8.93;;;13.50;96.30;;;;;;5072955;28;20031;-64
2022/10/18 04:43:57;;;;;;;12.95;7.60;;;13.50;96.60;;;;;;5073349;28;20074;-64
2022/10/18 04:46:22;;;;;;;15.02;9.57;;;13.40;96.60;;;;;;5072955;28;20419;-64
2022/10/18 04:48:48;;;;;;;10.65;8.10;;;13.40;96.70;;;;;;5072936;28;20072;-65
2022/10/18 04:51:14;;;;;;;13.05;8.32;;;13.40;97.20;;;;;;5073111;28;20430;-67
2022/10/18 04:53:39;;;;;;;16.15;8.98;;;13.30;97.20;;;;;;5072705;28;20373;-64
2022/10/18 04:56:06;;;;;;;11.02;7.97;;;13.30;97.30;;;;;;5073017;28;20481;-64
2022/10/18 04:58:31;;;;;;;13.32;8.57;;;13.20;97.70;;;;;;5072739;28;20397;-64
2022/10/18 05:00:57;;;;;;;14.27;9.40;;;13.20;97.70;;;;;;5073028;28;20029;-64
2022/10/18 05:03:22;;;;;;;12.27;8.95;;;13.20;97.80;;;;;;5072173;28;20362;-66
2022/10/18 05:05:48;;;;;;;14.55;9.15;;;13.20;98.00;;;;;;5054980;28;20032;-65
2022/10/18 05:08:14;;;;;;;14.73;8.82;;;13.20;97.90;;;;;;5072808;28;20175;-64
2022/10/18 05:10:40;;;;;;;11.82;8.60;;;13.10;97.90;;;;;;5072943;28;20365;-65
2022/10/18 05:13:05;;;;;;;13.60;9.10;;;13.10;97.90;;;;;;5072962;28;20125;-65
2022/10/18 05:15:31;;;;;;;17.58;8.98;;;13.10;98.00;;;;;;5072285;28;20029;-65
2022/10/18 05:17:57;;;;;;;10.23;8.15;;;13.10;98.10;;;;;;5072765;28;20030;-65
2022/10/18 05:20:22;;;;;;;17.63;8.88;;;13.10;98.20;;;;;;5072012;28;20064;-65
2022/10/18 05:22:48;;;;;;;11.80;9.07;;;13.10;98.40;;;;;;5072528;28;20029;-65
2022/10/18 05:25:14;;;;;;;13.45;8.80;;;13.10;98.40;;;;;;5072660;28;20028;-65
2022/10/18 05:27:39;;;;;;;15.40;9.35;;;13.10;98.40;;;;;;5071737;28;20031;-65
2022/10/18 05:30:05;;;;;;;13.52;8.93;;;13.10;98.40;;;;;;5072679;28;20031;-65
2022/10/18 05:32:31;;;;;;;14.02;9.48;;;13.00;98.30;;;;;;5082632;28;20025;-65
2022/10/18 05:34:56;;;;;;;12.88;8.60;;;13.00;98.60;;;;;;5092519;28;20032;-65
2022/10/18 05:37:22;;;;;;;13.63;8.95;;;13.00;98.90;;;;;;5092541;28;20020;-66
2022/10/18 05:39:48;;;;;;;18.20;8.43;;;13.00;99.20;;;;;;5092532;28;20040;-65
2022/10/18 05:42:13;;;;;;;15.40;8.85;;;13.00;98.90;;;;;;5092231;28;20025;-65
2022/10/18 05:44:39;;;;;;;16.48;9.15;;;13.00;98.70;;;;;;5074017;28;20025;-64
2022/10/18 05:47:04;;;;;;;13.93;8.30;;;13.00;98.40;;;;;;5072137;28;20465;-64
2022/10/18 05:49:30;;;;;;;13.95;8.23;;;13.00;98.50;;;;;;5071743;28;20028;-65
2022/10/18 05:51:56;;;;;;;13.25;8.48;;;13.00;98.10;;;;;;5072298;28;20028;-65
2022/10/18 05:54:21;;;;;;;13.90;8.52;;;13.10;97.80;;;;;;5073696;28;20024;-66
2022/10/18 05:56:47;;;;;;;15.57;9.05;;;13.10;97.70;;;;;;5078981;28;20056;-65
2022/10/18 05:59:12;;;;;;;10.55;7.63;;;13.10;97.40;;;;;;5079032;28;20025;-65
2022/10/18 06:01:40;;;;;;;11.32;7.85;;;13.10;97.20;;;;;;5078271;28;20141;-65
2022/10/18 06:04:06;;;;;;;12.07;8.27;;;13.10;96.90;;;;;;5078930;28;20020;-65
2022/10/18 06:06:32;;;;;;;16.85;8.57;;;13.10;97.30;;;;;;5078083;28;20054;-65
2022/10/18 06:08:58;;;;;;;14.48;8.18;;;13.10;97.20;;;;;;5078889;28;20040;-65
2022/10/18 06:11:24;;;;;;;17.77;9.02;;;13.10;97.40;;;;;;5078200;28;20024;-66
2022/10/18 06:13:51;;;;;;;16.80;8.93;;;13.10;97.40;;;;;;5078846;28;20469;-64
2022/10/18 06:16:19;;;;;;;15.48;9.23;;;13.10;97.40;;;;;;5078945;28;20025;-64
2022/10/18 06:18:52;;;;;;;14.27;8.90;;;13.10;97.50;;;;;;5077804;28;20029;-65
2022/10/18 06:21:19;;;;;;;15.50;9.27;;;13.10;97.30;;;;;;5078783;28;20044;-65
2022/10/18 06:23:49;;;;;;;14.70;7.75;;;13.20;97.30;;;;;;5077939;28;20472;-65
2022/10/18 06:26:14;;;;;;;13.55;8.48;;;13.20;96.90;;;;;;5075732;28;20443;-65
2022/10/18 06:28:40;;;;;;;18.00;7.93;;;13.20;96.80;;;;;;5078293;28;20064;-65
2022/10/18 06:31:06;;;;;;;14.20;8.15;;;13.20;96.90;;;;;;5077966;28;20063;-64
2022/10/18 06:33:33;;;;;;;14.63;8.55;;;13.10;97.00;;;;;;5078354;28;20029;-64
2022/10/18 06:36:26;;;;;;;18.83;8.50;;;13.20;97.00;;;;;;5060883;28;20024;-65
2022/10/18 06:38:52;;;;;;;13.27;8.15;;;13.20;96.90;;;;;;5073950;28;20071;-64
2022/10/18 06:41:19;;;;;;;18.77;8.20;;;13.20;96.90;;;;;;5078741;28;20032;-64
2022/10/18 06:43:56;;;;;;;14.13;8.02;;;13.30;96.90;;;;;;5060048;28;20500;-64
2022/10/18 06:46:22;;;;;;;13.98;8.65;;;13.30;96.90;;;;;;5078739;28;20427;-64
2022/10/18 06:48:48;;;;;;;11.93;8.50;;;13.30;96.70;;;;;;5078477;28;20033;-64
2022/10/18 06:51:14;;;;;;;14.63;8.20;;;13.30;97.00;;;;;;5078538;28;20031;-64
2022/10/18 06:53:40;;;;;;;17.23;8.57;;;13.30;97.10;;;;;;5077954;28;20028;-65
2022/10/18 06:56:09;;;;;;;12.15;8.55;;;13.40;97.10;;;;;;5078110;28;20049;-65
2022/10/18 06:58:35;;;;;;;17.15;8.95;;;13.30;96.80;;;;;;5077774;28;20032;-65
2022/10/18 07:01:10;;;;;;;16.38;9.77;;;13.30;97.00;;;;;;5078644;28;20040;-64
2022/10/18 07:03:36;;;;;;;13.40;8.30;;;13.30;96.80;;;;;;5078250;28;20028;-66
2022/10/18 07:06:03;;;;;;;13.27;8.32;;;13.40;97.10;;;;;;5075888;28;20028;-65
2022/10/18 07:08:29;;;;;;;13.90;9.07;;;13.40;96.70;;;;;;5056612;28;20090;-64
2022/10/18 07:10:55;;;;;;;11.15;8.05;;;13.50;96.80;;;;;;5074736;28;20024;-64
2022/10/18 07:13:21;;;;;;;9.18;8.18;;;13.70;97.10;;;;;;5057239;28;20530;-64
2022/10/18 07:15:47;;;;;;;14.45;7.50;;;13.90;97.30;;;;;;5072848;28;20603;-65
2022/10/18 07:18:13;;;;;;;14.52;8.13;;;14.10;96.00;;;;;;5074817;28;20020;-64
2022/10/18 07:20:39;;;;;;;11.10;6.97;;;14.40;95.20;;;;;;5074237;28;20111;-64
2022/10/18 07:23:07;;;;;;;15.95;9.13;;;14.70;94.10;;;;;;5074746;28;20031;-65
2022/10/18 07:25:33;;;;;;;10.35;7.88;;;14.90;92.80;;;;;;5074462;28;20131;-65
2022/10/18 07:27:59;;;;;;;11.30;8.52;;;15.20;92.30;;;;;;5074636;28;20032;-64
2022/10/18 07:30:25;;;;;;;10.20;7.40;;;15.40;90.80;;;;;;5074372;28;20036;-65
2022/10/18 07:32:51;;;;;;;15.23;7.75;;;15.70;89.50;;;;;;5073899;28;20025;-65
2022/10/18 07:35:17;;;;;;;12.75;7.53;;;15.80;89.20;;;;;;5074525;28;20020;-64
2022/10/18 07:37:43;;;;;;;12.70;7.60;;;16.00;86.00;;;;;;5073548;28;20032;-65
2022/10/18 07:40:10;;;;;;;15.90;7.22;;;16.20;87.50;;;;;;5074510;28;20028;-64
2022/10/18 07:42:36;;;;;;;12.40;7.65;;;16.40;85.50;;;;;;5091657;28;20154;-66
2022/10/18 07:45:02;;;;;;;10.55;7.18;;;16.50;84.10;;;;;;5094555;28;20082;-64
2022/10/18 07:47:28;;;;;;;11.13;7.38;;;16.70;84.20;;;;;;5094166;28;20047;-68
2022/10/18 07:49:53;;;;;;;9.23;7.30;;;16.90;83.10;;;;;;5085398;28;20041;-65
2022/10/18 07:52:19;;;;;;;12.32;7.03;;;17.10;83.00;;;;;;5074410;28;20028;-65
2022/10/18 07:54:45;;;;;;;13.43;7.70;;;17.30;81.00;;;;;;5073363;28;20024;-65
2022/10/18 07:57:10;;;;;;;13.27;6.82;;;17.50;79.10;;;;;;5074246;28;20055;-65
2022/10/18 07:59:37;;;;;;;10.77;7.13;;;17.60;79.90;;;;;;5073675;28;20025;-65
2022/10/18 08:02:03;;;;;;;10.95;6.82;;;17.80;77.80;;;;;;5074421;28;20115;-65
2022/10/18 08:04:28;;;;;;;10.38;7.03;;;18.00;77.50;;;;;;5074106;28;20059;-65
2022/10/18 08:06:54;;;;;;;9.32;6.88;;;18.20;76.50;;;;;;5074150;28;20028;-65
2022/10/18 08:09:20;;;;;;;13.68;8.05;;;18.40;75.90;;;;;;5073406;28;20424;-65
2022/10/18 08:11:45;;;;;;;9.40;7.03;;;18.50;74.40;;;;;;5073445;28;20424;-65
2022/10/18 08:14:11;;;;;;;11.60;7.18;;;18.50;72.30;;;;;;5055701;28;20029;-65
2022/10/18 08:16:36;;;;;;;13.73;7.70;;;18.60;73.30;;;;;;5073153;28;20025;-65
2022/10/18 08:19:03;;;;;;;14.75;7.93;;;18.60;74.00;;;;;;5073462;28;20376;-65
2022/10/18 08:21:28;;;;;;;9.88;6.95;;;18.70;71.90;;;;;;5073586;28;20031;-65
2022/10/18 08:23:54;;;;;;;11.73;6.95;;;18.70;71.90;;;;;;5072829;28;20040;-65
2022/10/18 08:26:21;;;;;;;12.95;7.70;;;18.80;72.10;;;;;;5073963;28;20482;-65
2022/10/18 08:28:47;;;;;;;10.40;7.30;;;18.80;70.80;;;;;;5073119;28;20033;-64
2022/10/18 08:31:18;;;;;;;9.02;6.28;;;18.90;70.90;;;;;;5073034;28;20064;-65
2022/10/18 08:33:55;;;;;;;12.48;7.18;;;19.10;71.30;;;;;;5072920;28;20032;-65
2022/10/18 08:36:21;;;;;;;12.68;6.82;;;19.30;71.40;;;;;;5073350;28;20032;-64
2022/10/18 08:38:48;;;;;;;11.40;6.78;;;19.40;71.20;;;;;;5072900;28;20039;-65
2022/10/18 08:41:34;;;;;;;13.68;7.07;;;19.50;70.10;;;;;;5073509;28;20028;-66
2022/10/18 08:44:18;;;;;;;14.70;7.70;;;19.50;69.10;;;;;;5073603;28;20024;-66
2022/10/18 08:46:49;;;;;;;17.60;7.63;;;19.60;69.10;;;;;;5072943;28;20028;-65
2022/10/18 08:49:35;;;;;;;14.48;6.90;;;19.70;67.80;;;;;;5073205;28;20473;-68
2022/10/18 08:52:01;;;;;;;11.80;7.65;;;19.90;67.80;;;;;;5073521;28;20024;-66
2022/10/18 08:54:53;;;;;;;19.95;9.27;;;20.00;68.40;;;;;;5055439;28;20039;-65
2022/10/18 08:57:19;;;;;;;13.85;7.43;;;20.20;67.40;;;;;;5073488;28;20072;-65
2022/10/18 08:59:45;;;;;;;14.38;7.95;;;20.30;66.70;;;;;;5072885;28;20028;-66
2022/10/18 09:02:29;;;;;;;11.63;7.93;;;20.40;65.80;;;;;;5055138;28;20031;-65
2022/10/18 09:05:31;;;;;;;11.15;7.10;;;20.50;66.30;;;;;;5072669;28;20046;-65
2022/10/18 09:08:11;;;;;;;13.32;8.00;;;20.60;65.40;;;;;;5033997;28;20036;-65
2022/10/18 09:10:58;;;;;;;12.48;7.05;;;20.60;64.00;;;;;;5072828;28;20067;-66
2022/10/18 09:14:06;;;;;;;11.60;7.00;;;20.50;65.40;;;;;;5073149;28;20032;-66
2022/10/18 09:16:41;;;;;;;11.75;7.03;;;20.70;65.00;;;;;;4983627;28;20428;-65
2022/10/18 09:19:09;;;;;;;16.45;7.50;;;20.70;63.00;;;;;;5072949;28;20025;-65
2022/10/18 09:22:15;;;;;;;11.65;6.97;;;20.80;63.60;;;;;;5072324;28;20025;-67
2022/10/18 09:25:04;;;;;;;11.02;6.95;;;20.80;62.90;;;;;;5004291;28;20041;-65
2022/10/18 09:27:51;;;;;;;13.55;7.10;;;20.80;62.80;;;;;;5052764;28;20127;-66
2022/10/18 09:30:47;;;;;;;11.73;7.18;;;21.00;63.80;;;;;;5052219;28;20461;-66
2022/10/18 09:33:28;;;;;;;13.48;7.22;;;21.10;63.20;;;;;;5052573;28;20033;-65
2022/10/18 09:36:02;;;;;;;15.88;7.45;;;21.20;62.30;;;;;;5052197;28;20107;-65
2022/10/18 09:38:31;;;;;;;11.85;7.57;;;21.30;61.50;;;;;;5052449;28;20048;-64
2022/10/18 09:41:04;;;;;;;13.38;8.45;;;21.40;61.90;;;;;;5034094;28;20461;-65
2022/10/18 09:43:54;;;;;;;12.98;7.50;;;21.50;60.70;;;;;;5051942;28;20383;-65
2022/10/18 09:46:25;;;;;;;12.57;7.72;;;21.60;61.30;;;;;;5054437;28;20017;-65
2022/10/18 09:49:01;;;;;;;14.32;8.55;;;21.70;60.80;;;;;;5051599;28;20436;-64
2022/10/18 09:51:33;;;;;;;12.95;7.72;;;21.80;60.30;;;;;;5052468;28;20087;-64
2022/10/18 09:54:14;;;;;;;14.65;8.43;;;22.00;61.70;;;;;;5051889;28;20120;-66
2022/10/18 09:57:08;;;;;;;14.33;7.87;;;21.80;59.50;;;;;;5052205;28;20053;-65
2022/10/18 09:59:36;;;;;;;13.35;8.60;;;22.00;59.60;;;;;;5052165;28;20250;-66
2022/10/18 10:02:02;;;;;;;11.07;7.18;;;22.10;59.60;;;;;;5051705;28;20070;-65
2022/10/18 10:04:28;;;;;;;19.90;8.73;;;22.20;60.10;;;;;;5052264;28;20036;-65
2022/10/18 10:06:57;;;;;;;17.42;9.68;;;22.20;58.70;;;;;;5051566;28;20024;-65
2022/10/18 10:09:36;;;;;;;14.85;8.95;;;22.20;58.50;;;;;;5051835;28;20418;-65
2022/10/18 10:12:02;;;;;;;13.18;7.85;;;22.20;58.70;;;;;;5051649;28;20465;-65
2022/10/18 10:14:29;;;;;;;15.80;8.77;;;22.30;59.00;;;;;;5051990;28;20428;-65
2022/10/18 10:17:01;;;;;;;13.75;8.18;;;22.40;58.30;;;;;;5051619;28;20454;-65
2022/10/18 10:19:36;;;;;;;13.52;8.75;;;22.50;58.80;;;;;;5052095;28;20040;-65
2022/10/18 10:22:06;;;;;;;16.55;8.05;;;22.50;57.70;;;;;;5051751;28;20025;-66
2022/10/18 10:24:47;;;;;;;11.68;7.63;;;22.50;58.10;;;;;;5051510;28;20032;-64
2022/10/18 10:27:25;;;;;;;11.23;7.53;;;22.60;58.70;;;;;;5051575;28;20155;-64
2022/10/18 10:29:55;;;;;;;19.02;7.93;;;22.70;57.40;;;;;;5033968;28;20425;-65
2022/10/18 10:32:23;;;;;;;11.88;7.55;;;22.70;58.00;;;;;;5051696;28;20509;-65
2022/10/18 10:34:49;;;;;;;12.98;8.48;;;22.90;58.80;;;;;;5051133;28;20028;-65
2022/10/18 10:37:24;;;;;;;13.88;8.30;;;23.00;58.60;;;;;;5051336;28;20032;-65
2022/10/18 10:40:04;;;;;;;11.65;7.30;;;23.10;57.00;;;;;;5051110;28;20488;-65
2022/10/18 10:42:32;;;;;;;18.05;7.97;;;23.10;57.00;;;;;;5055370;28;20458;-64
2022/10/18 10:45:00;;;;;;;13.32;8.27;;;23.10;55.90;;;;;;5055479;28;20036;-65
2022/10/18 10:47:30;;;;;;;14.82;8.07;;;23.10;55.80;;;;;;5055623;28;20040;-65
2022/10/18 10:49:56;;;;;;;15.57;8.30;;;23.20;56.40;;;;;;5055025;28;20029;-64
2022/10/18 10:52:26;;;;;;;15.00;8.70;;;23.20;56.90;;;;;;5055159;28;20157;-64
2022/10/18 10:54:53;;;;;;;12.48;8.68;;;23.30;56.30;;;;;;5054835;28;20453;-64
2022/10/18 10:57:21;;;;;;;10.35;8.18;;;23.30;56.40;;;;;;5074041;28;20061;-65
2022/10/18 10:59:50;;;;;;;11.95;8.30;;;23.30;56.60;;;;;;5075469;28;20021;-64
2022/10/18 11:02:16;;;;;;;14.23;8.50;;;23.40;56.40;;;;;;5075442;28;20378;-65
2022/10/18 11:04:43;;;;;;;11.73;8.43;;;23.40;55.60;;;;;;5075327;28;20427;-67
2022/10/18 11:07:12;;;;;;;17.27;9.52;;;23.40;55.90;;;;;;5075660;28;20385;-65
2022/10/18 11:09:40;;;;;;;17.33;9.73;;;23.50;55.30;;;;;;5075743;28;20040;-64
2022/10/18 11:12:27;;;;;;;10.65;8.07;;;23.50;55.10;;;;;;5074348;28;20457;-65
2022/10/18 11:15:10;;;;;;;17.42;8.20;;;23.50;57.10;;;;;;5074306;28;20476;-65
2022/10/18 11:17:46;;;;;;;14.38;9.68;;;23.70;56.10;;;;;;5075062;28;20115;-65
2022/10/18 11:20:28;;;;;;;13.00;8.52;;;23.70;54.80;;;;;;5074921;28;20111;-65
2022/10/18 11:22:59;;;;;;;15.40;9.40;;;23.80;55.80;;;;;;5074680;28;20024;-64
2022/10/18 11:25:38;;;;;;;13.63;8.77;;;23.80;56.40;;;;;;5075177;28;20036;-65
2022/10/18 11:28:42;;;;;;;14.10;8.43;;;23.90;56.10;;;;;;5074611;28;20071;-64
2022/10/18 11:31:20;;;;;;;13.48;8.13;;;24.00;56.00;;;;;;5074475;28;20388;-65
2022/10/18 11:33:58;;;;;;;14.93;8.55;;;24.00;55.20;;;;;;5074433;28;20102;-65
2022/10/18 11:36:31;;;;;;;17.20;9.25;;;24.10;55.80;;;;;;5074067;28;20036;-65
2022/10/18 11:39:20;;;;;;;24.17;9.73;;;24.10;54.90;;;;;;5074085;28;20032;-64
2022/10/18 11:41:52;;;;;;;13.93;9.77;;;24.10;54.20;;;;;;5074409;28;20039;-65
2022/10/18 11:44:51;;;;;;;15.73;8.95;;;24.00;54.90;;;;;;5074925;28;20037;-65
2022/10/18 11:47:26;;;;;;;15.10;10.00;;;24.00;54.50;;;;;;5074894;28;20024;-64
2022/10/18 11:50:05;;;;;;;13.35;9.98;;;23.90;54.40;;;;;;5073923;28;20036;-65
2022/10/18 11:52:46;;;;;;;14.20;9.75;;;23.80;54.30;;;;;;5073756;28;20489;-65
2022/10/18 11:55:24;;;;;;;17.80;9.50;;;23.90;55.70;;;;;;5079680;28;20103;-65
2022/10/18 11:57:59;;;;;;;17.23;9.57;;;24.00;55.10;;;;;;5094365;28;20482;-66
2022/10/18 12:00:45;;;;;;;19.02;10.18;;;24.00;55.80;;;;;;5094565;28;20056;-64
2022/10/18 12:03:37;;;;;;;17.83;9.93;;;24.00;54.90;;;;;;5094842;28;20069;-65
2022/10/18 12:06:11;;;;;;;18.48;10.70;;;23.90;55.70;;;;;;5093980;28;20379;-65
2022/10/18 12:08:42;;;;;;;15.57;10.35;;;23.90;56.30;;;;;;5094263;28;20033;-64
2022/10/18 12:11:18;;;;;;;16.30;10.48;;;24.00;56.20;;;;;;5094468;28;20503;-65
2022/10/18 12:13:58;;;;;;;20.77;9.75;;;24.10;56.70;;;;;;5094524;28;20361;-65
2022/10/18 12:16:27;;;;;;;14.15;8.65;;;24.20;57.00;;;;;;5094571;28;20028;-65
2022/10/18 12:19:02;;;;;;;13.15;9.30;;;24.20;56.80;;;;;;5093698;28;20464;-65
2022/10/18 12:21:31;;;;;;;17.58;9.63;;;24.30;56.60;;;;;;5076360;28;20044;-65
2022/10/18 12:24:09;;;;;;;17.20;9.20;;;24.30;55.60;;;;;;5075747;28;20032;-65
2022/10/18 12:26:36;;;;;;;20.60;9.73;;;24.30;56.00;;;;;;5094487;28;20414;-65
2022/10/18 12:29:24;;;;;;;16.05;10.68;;;24.30;55.80;;;;;;5093555;28;20039;-64
2022/10/18 12:31:54;;;;;;;16.15;10.35;;;24.20;55.60;;;;;;5093622;28;20117;-64
2022/10/18 12:34:55;;;;;;;16.77;9.98;;;24.10;56.00;;;;;;5093738;28;20032;-66
2022/10/18 12:37:30;;;;;;;15.27;10.50;;;24.00;56.20;;;;;;5037820;28;20112;-64
2022/10/18 12:40:02;;;;;;;21.15;11.45;;;23.90;56.40;;;;;;5093552;28;20028;-65
2022/10/18 12:42:31;;;;;;;15.45;10.48;;;23.70;56.80;;;;;;5093956;28;20032;-64
2022/10/18 12:45:34;;;;;;;15.45;10.60;;;23.70;57.40;;;;;;5093499;28;20024;-65
2022/10/18 12:48:07;;;;;;;16.90;9.52;;;23.60;57.30;;;;;;5092718;28;20027;-65
2022/10/18 12:50:39;;;;;;;16.52;10.32;;;23.60;57.70;;;;;;5092178;28;20100;-65
2022/10/18 12:53:28;;;;;;;17.55;11.88;;;23.40;57.50;;;;;;5091629;28;20028;-65
2022/10/18 12:56:15;;;;;;;18.23;11.40;;;23.30;58.00;;;;;;5091574;28;20090;-65
2022/10/18 12:58:41;;;;;;;13.45;10.80;;;23.30;58.20;;;;;;5091646;28;20028;-65